Sapelo Island, GA

1:52 PM EDT on August 30, 2014 (GMT -0400)
Wright Army Air Field | Change Station
CLOSE
Current Station
Airport
Location: Ft. Stewart,
Elevation: 46 ft
Nearby Weather Stations

Elev 46 ft 31.89 °N, 81.56 °W | Updated 54 minutes ago

Scattered Clouds
Scattered Clouds
91 °F
Feels Like 98 °F
N
8
Wind Variable Wind from East

Today
High -- | Low -- °F
--% Chance of Precip.
Yesterday
High -- | Low -- °F
Precip. -- in
6:59 AM 7:51 PM
Waxing Crescent, 23% visible
Pressure 30.13 in
Visibility 10.0 miles
Clouds Scattered Clouds 4200 ft
Scattered Clouds 6000 ft
Heat Index 98 °F
Dew Point 72 °F
Humidity 53%
Rainfall 0.00 in
Snow Depth Not available.
UV 10 out of 12
Pollen 7.00 out of 12
Air Quality Not available.
Flu Activity Not available.
METAR KLHW 301658Z AUTO 10007KT 10SM SCT042 SCT060 33/22 A3013 RMK AO2 SLPNO T03280221

More Conditions Fewer Conditions

Pressure 30.13 in
Visibility 10.0 miles
Clouds Scattered Clouds 4200 ft
Scattered Clouds 6000 ft
Heat Index 98 °F
Dew Point 72 °F
Humidity 53%
Rainfall 0.00 in
Snow Depth Not available.
UV 10 out of 12
Pollen 7.00 out of 12
Air Quality Not available.
Flu Activity Not available.
METAR KLHW 301658Z AUTO 10007KT 10SM SCT042 SCT060 33/22 A3013 RMK AO2 SLPNO T03280221

More Conditions Fewer Conditions

10-Day Weather Forecast

Almanac

Astronomy

Aug. 30, 2014 Rise Set
Actual Time 6:59 AM EDT 7:51 PM EDT
Civil Twilight 6:34 AM EDT 8:15 PM EDT
Nautical Twilight 6:05 AM EDT 8:45 PM EDT
Astronomical Twilight 5:35 AM EDT 9:15 PM EDT
Moon 11:25 AM EDT 10:45 PM EDT
Length of Visible Light 13h 41m
Length of Day
12h 51m
Tomorrow will be 1m 50s shorter.
Waxing Crescent, 23% of the Moon is Illuminated
Today
Waxing Crescent
Sep 2
First Quarter
Sep 8
Full
Sep 15
Last Quarter
Sep 24
New

Today's Extremes

State Highs State Lows

Community

WunderPhotos

Upload Photos

1,748,581 photos uploaded!

WunderBlogs® & News

Nearby

Snow Depth

Station Depth Elevation
No new snow has been reported.

Earthquake Activity

City Distance Mag. Time & Date
No recent earthquake activity has been reported nearby.
Minimum magnitude displayed is 2.5.

Coastal Water Temperatures

Place Temperature
No Stations Reporting

Nearby Weather Stations